Time;durP1;ratioP1;P1;durP2;ratioP2;P2;SDS_P1;SDS_P2;PMS_P1;PMS_P2;Temp;Humidity;BMP_temperature;BMP_pressure;BME280_temperature;BME280_humidity;BME280_pressure;Samples;Min_cycle;Max_cycle;Signal;HPM_P1;HPM_P2
2022/04/03 00:00:50;;;;;;;;;;;23.50;43.80;;;;;;1547141;77;808;-68
2022/04/03 00:02:52;;;;;;;;;;;23.60;43.90;;;;;;1546913;77;1126;-69
2022/04/03 00:04:54;;;;;;;;;;;23.60;43.70;;;;;;1547173;77;800;-69
2022/04/03 00:06:57;;;;;;;;;;;23.60;43.50;;;;;;1564307;75;709;-69
2022/04/03 00:08:59;;;;;;;;;;;23.70;43.60;;;;;;1573728;75;1912;-70
2022/04/03 00:11:01;;;;;;;;;;;23.60;43.80;;;;;;1573752;74;919;-67
2022/04/03 00:13:04;;;;;;;;;;;23.60;43.70;;;;;;1547060;76;1098;-69
2022/04/03 00:15:06;;;;;;;;;;;23.60;43.50;;;;;;1547259;77;812;-68
2022/04/03 00:17:08;;;;;;;;;;;23.70;43.80;;;;;;1547267;77;809;-69
2022/04/03 00:19:10;;;;;;;;;;;23.70;43.80;;;;;;1547302;76;731;-69
2022/04/03 00:21:14;;;;;;;;;;;23.70;43.80;;;;;;1545510;77;716;-69
2022/04/03 00:23:16;;;;;;;;;;;23.70;43.60;;;;;;1543891;77;1135;-71
2022/04/03 00:25:18;;;;;;;;;;;23.70;43.60;;;;;;1545980;77;722;-70
2022/04/03 00:27:20;;;;;;;;;;;23.70;43.60;;;;;;1547821;77;730;-70
2022/04/03 00:29:23;;;;;;;;;;;23.70;43.60;;;;;;1547700;76;1932;-70
2022/04/03 00:31:25;;;;;;;;;;;23.70;43.60;;;;;;1547730;77;653;-71
2022/04/03 00:33:27;;;;;;;;;;;23.70;43.90;;;;;;1547376;77;1126;-70
2022/04/03 00:35:29;;;;;;;;;;;23.70;43.90;;;;;;1547646;77;716;-71
2022/04/03 00:37:30;;;;;;;;;;;23.70;43.80;;;;;;1547731;75;735;-71
2022/04/03 00:39:33;;;;;;;;;;;23.70;43.90;;;;;;1547654;77;779;-72
2022/04/03 00:41:35;;;;;;;;;;;23.70;43.80;;;;;;1547775;75;834;-71
2022/04/03 00:43:37;;;;;;;;;;;23.70;43.90;;;;;;1544451;77;1316;-71
2022/04/03 00:45:39;;;;;;;;;;;23.60;43.90;;;;;;1544330;77;768;-72
2022/04/03 00:47:41;;;;;;;;;;;23.70;44.10;;;;;;1544388;77;727;-72
2022/04/03 00:49:43;;;;;;;;;;;23.60;44.00;;;;;;1544202;77;1943;-72
2022/04/03 00:51:44;;;;;;;;;;;23.70;44.20;;;;;;1545096;77;604;-70
2022/04/03 00:53:46;;;;;;;;;;;23.60;43.80;;;;;;1547538;77;1106;-70
2022/04/03 00:55:48;;;;;;;;;;;23.70;43.90;;;;;;1547186;77;794;-71
2022/04/03 00:57:50;;;;;;;;;;;23.70;44.00;;;;;;1547579;77;806;-71
2022/04/03 00:59:52;;;;;;;;;;;23.70;44.00;;;;;;1547419;77;798;-72
2022/04/03 01:01:54;;;;;;;;;;;23.60;44.10;;;;;;1547381;77;795;-71
2022/04/03 01:03:56;;;;;;;;;;;23.60;44.00;;;;;;1547043;76;1083;-71
2022/04/03 01:05:58;;;;;;;;;;;23.70;44.10;;;;;;1548872;75;743;-72
2022/04/03 01:08:00;;;;;;;;;;;23.70;44.10;;;;;;1574246;75;697;-71
2022/04/03 01:10:02;;;;;;;;;;;23.60;44.10;;;;;;1574101;75;1934;-71
2022/04/03 01:12:04;;;;;;;;;;;23.60;44.00;;;;;;1574065;75;643;-71
2022/04/03 01:14:06;;;;;;;;;;;23.60;43.90;;;;;;1565308;74;693;-71
2022/04/03 01:16:08;;;;;;;;;;;23.70;43.80;;;;;;1544354;77;722;-69
2022/04/03 01:18:10;;;;;;;;;;;23.70;43.70;;;;;;1544521;77;633;-71
2022/04/03 01:20:12;;;;;;;;;;;23.70;43.60;;;;;;1553826;75;748;-71
2022/04/03 01:22:14;;;;;;;;;;;23.80;43.60;;;;;;1555188;75;1149;-71
2022/04/03 01:24:19;;;;;;;;;;;23.80;43.50;;;;;;1562388;75;756;-70
2022/04/03 01:26:21;;;;;;;;;;;23.80;43.40;;;;;;1547146;77;729;-71
2022/04/03 01:28:24;;;;;;;;;;;23.80;43.50;;;;;;1547182;77;676;-71
2022/04/03 01:30:26;;;;;;;;;;;23.70;43.50;;;;;;1561225;75;1602;-69
2022/04/03 01:32:28;;;;;;;;;;;23.70;43.60;;;;;;1547500;77;1142;-71
2022/04/03 01:34:30;;;;;;;;;;;23.70;43.50;;;;;;1560739;75;805;-71
2022/04/03 01:36:32;;;;;;;;;;;23.70;43.70;;;;;;1562405;74;684;-71
2022/04/03 01:38:34;;;;;;;;;;;23.70;43.70;;;;;;1568237;75;754;-73
2022/04/03 01:40:36;;;;;;;;;;;23.70;43.60;;;;;;1574105;75;733;-71
2022/04/03 01:42:38;;;;;;;;;;;23.80;43.60;;;;;;1573981;75;1215;-72
2022/04/03 01:44:40;;;;;;;;;;;23.70;43.60;;;;;;1574053;75;754;-71
2022/04/03 01:46:42;;;;;;;;;;;23.70;43.50;;;;;;1547379;75;749;-72
2022/04/03 01:48:43;;;;;;;;;;;23.80;43.40;;;;;;1547638;77;1944;-73
2022/04/03 01:50:46;;;;;;;;;;;23.80;43.60;;;;;;1547688;76;711;-70
2022/04/03 01:52:48;;;;;;;;;;;23.70;43.70;;;;;;1558937;75;1097;-72
2022/04/03 01:54:49;;;;;;;;;;;23.60;43.80;;;;;;1551702;75;675;-70
2022/04/03 01:56:51;;;;;;;;;;;23.60;44.00;;;;;;1545727;77;748;-72
2022/04/03 01:58:53;;;;;;;;;;;23.60;44.30;;;;;;1547286;77;825;-72
2022/04/03 02:00:55;;;;;;;;;;;23.50;44.40;;;;;;1547338;76;774;-73
2022/04/03 02:02:58;;;;;;;;;;;23.40;44.30;;;;;;1547347;77;1165;-72
2022/04/03 02:05:00;;;;;;;;;;;23.50;44.50;;;;;;1544456;76;724;-72
2022/04/03 02:07:03;;;;;;;;;;;23.30;44.50;;;;;;1544451;77;786;-70
2022/04/03 02:09:07;;;;;;;;;;;23.40;45.40;;;;;;1545313;75;1916;-72
2022/04/03 02:11:08;;;;;;;;;;;23.40;44.70;;;;;;1569676;75;1643;-70
2022/04/03 02:13:11;;;;;;;;;;;23.40;44.50;;;;;;1544142;77;1170;-69
2022/04/03 02:15:12;;;;;;;;;;;23.50;44.20;;;;;;1543947;77;785;-70
2022/04/03 02:17:14;;;;;;;;;;;23.70;44.10;;;;;;1544233;77;784;-70
2022/04/03 02:19:16;;;;;;;;;;;23.70;43.90;;;;;;1544266;76;733;-70
2022/04/03 02:21:18;;;;;;;;;;;23.70;43.70;;;;;;1544055;76;733;-70
2022/04/03 02:23:20;;;;;;;;;;;23.70;43.60;;;;;;1544223;77;1138;-71
2022/04/03 02:25:22;;;;;;;;;;;23.80;43.40;;;;;;1545780;77;698;-70
2022/04/03 02:27:24;;;;;;;;;;;23.80;43.50;;;;;;1547513;77;770;-71
2022/04/03 02:29:26;;;;;;;;;;;23.70;43.80;;;;;;1547424;77;1908;-71
2022/04/03 02:31:28;;;;;;;;;;;23.60;43.90;;;;;;1547412;77;727;-72
2022/04/03 02:33:30;;;;;;;;;;;23.60;44.20;;;;;;1544838;77;1139;-70
2022/04/03 02:35:32;;;;;;;;;;;23.60;44.30;;;;;;1544068;76;711;-70
2022/04/03 02:37:35;;;;;;;;;;;23.50;44.60;;;;;;1544100;77;765;-71
2022/04/03 02:39:37;;;;;;;;;;;23.40;44.60;;;;;;1544177;77;799;-71
2022/04/03 02:41:40;;;;;;;;;;;23.30;44.70;;;;;;1543952;77;995;-70
2022/04/03 02:43:41;;;;;;;;;;;23.30;45.10;;;;;;1552317;75;1142;-70
2022/04/03 02:45:44;;;;;;;;;;;23.30;45.20;;;;;;1573926;75;711;-70
2022/04/03 02:47:56;;;;;;;;;;;23.20;45.20;;;;;;1574133;75;583;-71
2022/04/03 02:49:55;;;;;;;;;;;23.30;45.30;;;;;;1549310;75;1923;-70
2022/04/03 02:51:57;;;;;;;;;;;23.20;45.30;;;;;;1547489;77;876;-71
2022/04/03 02:53:59;;;;;;;;;;;23.20;45.50;;;;;;1547301;77;1070;-69
2022/04/03 02:56:01;;;;;;;;;;;23.10;45.40;;;;;;1544394;77;642;-70
2022/04/03 02:58:04;;;;;;;;;;;23.20;45.50;;;;;;1544102;77;712;-71
2022/04/03 03:00:06;;;;;;;;;;;23.10;45.40;;;;;;1544370;77;631;-72
2022/04/03 03:02:08;;;;;;;;;;;23.10;45.50;;;;;;1544202;77;1090;-73
2022/04/03 03:04:10;;;;;;;;;;;23.20;45.60;;;;;;1545964;74;226889;-65
2022/04/03 03:06:12;;;;;;;;;;;23.10;45.70;;;;;;1561549;75;780;-66
2022/04/03 03:08:14;;;;;;;;;;;23.20;45.70;;;;;;1577794;74;754;-66
2022/04/03 03:10:23;;;;;;;;;;;23.20;45.70;;;;;;1559753;76;1939;-66
2022/04/03 03:12:25;;;;;;;;;;;23.20;45.70;;;;;;1566492;75;698;-67
2022/04/03 03:14:27;;;;;;;;;;;23.20;45.80;;;;;;1552016;76;1159;-66
2022/04/03 03:16:29;;;;;;;;;;;23.20;45.70;;;;;;1552012;76;786;-67
2022/04/03 03:18:31;;;;;;;;;;;23.20;45.70;;;;;;1551904;76;767;-66
2022/04/03 03:20:33;;;;;;;;;;;23.20;45.70;;;;;;1548757;75;842;-65
2022/04/03 03:22:36;;;;;;;;;;;23.20;45.80;;;;;;1510658;78;702;-65
2022/04/03 03:24:37;;;;;;;;;;;23.20;45.80;;;;;;1515621;76;1061;-67
2022/04/03 03:26:39;;;;;;;;;;;23.20;45.80;;;;;;1529688;78;765;-65
2022/04/03 03:28:41;;;;;;;;;;;23.20;45.80;;;;;;1529680;78;801;-65
2022/04/03 03:30:43;;;;;;;;;;;23.20;45.80;;;;;;1529653;78;1925;-65
2022/04/03 03:32:45;;;;;;;;;;;23.20;45.70;;;;;;1537266;75;640;-65
2022/04/03 03:34:47;;;;;;;;;;;23.20;45.70;;;;;;1555784;76;1089;-65
2022/04/03 03:36:49;;;;;;;;;;;23.20;45.70;;;;;;1555718;76;786;-67
2022/04/03 03:38:50;;;;;;;;;;;23.20;45.70;;;;;;1522324;76;774;-65
2022/04/03 03:40:52;;;;;;;;;;;23.20;45.80;;;;;;1532381;75;829;-68
2022/04/03 03:42:54;;;;;;;;;;;23.20;45.90;;;;;;1555982;76;1203;-67
2022/04/03 03:44:58;;;;;;;;;;;23.20;45.90;;;;;;1514533;76;753;-64
2022/04/03 03:47:00;;;;;;;;;;;23.20;45.80;;;;;;1510636;79;786;-65
2022/04/03 03:49:02;;;;;;;;;;;23.20;45.90;;;;;;1510621;79;725;-67
2022/04/03 03:51:04;;;;;;;;;;;23.20;45.80;;;;;;1529997;76;1923;-65
2022/04/03 03:53:06;;;;;;;;;;;23.20;45.90;;;;;;1529631;78;1136;-65
2022/04/03 03:55:08;;;;;;;;;;;23.20;45.90;;;;;;1541968;75;723;-65
2022/04/03 03:57:10;;;;;;;;;;;23.20;45.90;;;;;;1555870;76;831;-65
2022/04/03 03:59:12;;;;;;;;;;;23.20;45.90;;;;;;1556133;76;869;-66
2022/04/03 04:01:14;;;;;;;;;;;23.20;45.80;;;;;;1555858;76;810;-68
2022/04/03 04:03:15;;;;;;;;;;;23.20;45.80;;;;;;1556348;75;1146;-67
2022/04/03 04:05:17;;;;;;;;;;;23.20;45.80;;;;;;1555725;75;780;-65
2022/04/03 04:07:19;;;;;;;;;;;23.20;45.80;;;;;;1555874;76;784;-65
2022/04/03 04:09:21;;;;;;;;;;;23.20;45.80;;;;;;1555925;76;702;-65
2022/04/03 04:11:23;;;;;;;;;;;23.20;45.80;;;;;;1555747;76;1943;-62
2022/04/03 04:13:25;;;;;;;;;;;23.20;45.80;;;;;;1554495;75;1157;-65
2022/04/03 04:15:28;;;;;;;;;;;23.20;45.70;;;;;;1555854;76;728;-67
2022/04/03 04:17:31;;;;;;;;;;;23.20;45.80;;;;;;1555916;76;787;-65
2022/04/03 04:19:33;;;;;;;;;;;23.20;45.80;;;;;;1555863;76;1821;-67
2022/04/03 04:21:36;;;;;;;;;;;23.20;45.70;;;;;;1553563;75;716;-66
2022/04/03 04:23:37;;;;;;;;;;;23.20;45.70;;;;;;1529854;78;1185;-65
2022/04/03 04:25:39;;;;;;;;;;;23.20;45.70;;;;;;1548995;75;732;-66
2022/04/03 04:27:41;;;;;;;;;;;23.20;45.70;;;;;;1555773;76;801;-67
2022/04/03 04:29:43;;;;;;;;;;;23.20;45.70;;;;;;1555895;76;1939;-66
2022/04/03 04:31:45;;;;;;;;;;;23.20;45.70;;;;;;1555913;76;635;-66
2022/04/03 04:33:47;;;;;;;;;;;23.20;45.70;;;;;;1555904;76;1118;-65
2022/04/03 04:35:50;;;;;;;;;;;23.20;45.70;;;;;;1556432;75;707;-68
2022/04/03 04:37:51;;;;;;;;;;;23.20;45.70;;;;;;1555775;76;704;-66
2022/04/03 04:39:53;;;;;;;;;;;23.30;45.80;;;;;;1555900;76;751;-66
2022/04/03 04:41:55;;;;;;;;;;;23.20;45.70;;;;;;1555708;76;802;-69
2022/04/03 04:43:57;;;;;;;;;;;23.20;45.70;;;;;;1552530;75;1149;-65
2022/04/03 04:45:59;;;;;;;;;;;23.20;45.70;;;;;;1546562;76;661;-66
2022/04/03 04:48:01;;;;;;;;;;;23.20;45.70;;;;;;1546586;77;739;-68
2022/04/03 04:50:04;;;;;;;;;;;23.20;45.70;;;;;;1546590;77;1958;-67
2022/04/03 04:52:06;;;;;;;;;;;23.20;45.70;;;;;;1555103;75;1949;-65
2022/04/03 04:54:08;;;;;;;;;;;23.20;45.90;;;;;;1555789;76;1134;-65
2022/04/03 04:56:12;;;;;;;;;;;23.20;46.00;;;;;;1555683;75;690;-64
2022/04/03 04:58:14;;;;;;;;;;;23.20;46.00;;;;;;1555872;76;725;-65
2022/04/03 05:00:18;;;;;;;;;;;23.20;46.00;;;;;;1556080;76;669;-66
2022/04/03 05:02:19;;;;;;;;;;;23.20;46.00;;;;;;1556494;75;660;-67
2022/04/03 05:04:21;;;;;;;;;;;23.20;46.00;;;;;;1555738;76;1135;-65
2022/04/03 05:06:26;;;;;;;;;;;23.20;46.00;;;;;;1555765;76;748;-65
2022/04/03 05:08:27;;;;;;;;;;;23.20;45.90;;;;;;1555622;76;1244;-65
2022/04/03 05:10:29;;;;;;;;;;;23.20;46.00;;;;;;1555709;75;1923;-65
2022/04/03 05:12:31;;;;;;;;;;;23.20;46.00;;;;;;1553975;76;785;-65
2022/04/03 05:14:33;;;;;;;;;;;23.20;45.90;;;;;;1551976;76;1090;-65
2022/04/03 05:16:35;;;;;;;;;;;23.20;45.90;;;;;;1551986;76;688;-66
2022/04/03 05:18:37;;;;;;;;;;;23.30;46.20;;;;;;1553660;75;674;-66
2022/04/03 05:20:39;;;;;;;;;;;23.20;46.00;;;;;;1556517;75;685;-66
2022/04/03 05:22:41;;;;;;;;;;;23.20;45.70;;;;;;1553784;75;736;-67
2022/04/03 05:24:43;;;;;;;;;;;23.20;45.50;;;;;;1559525;75;1175;-66
2022/04/03 05:26:45;;;;;;;;;;;23.20;45.40;;;;;;1557041;75;855;-67
2022/04/03 05:28:47;;;;;;;;;;;23.30;45.20;;;;;;1562639;75;775;-66
2022/04/03 05:30:49;;;;;;;;;;;23.30;45.00;;;;;;1555891;75;1950;-66
2022/04/03 05:32:50;;;;;;;;;;;23.40;44.70;;;;;;1552617;75;1137;-63
2022/04/03 05:34:53;;;;;;;;;;;23.40;44.50;;;;;;1552427;75;724;-66
2022/04/03 05:36:55;;;;;;;;;;;23.40;44.50;;;;;;1553360;75;724;-67
2022/04/03 05:38:58;;;;;;;;;;;23.30;44.60;;;;;;1554489;75;730;-64
2022/04/03 05:40:59;;;;;;;;;;;23.50;44.50;;;;;;1555693;76;779;-65
2022/04/03 05:43:01;;;;;;;;;;;23.60;44.10;;;;;;1555834;76;1162;-65
2022/04/03 05:45:05;;;;;;;;;;;23.60;43.80;;;;;;1508557;78;770;-65
2022/04/03 05:47:07;;;;;;;;;;;23.80;43.60;;;;;;1493748;79;2049;-65
2022/04/03 05:49:09;;;;;;;;;;;23.80;43.40;;;;;;1487907;79;675;-65
2022/04/03 05:51:10;;;;;;;;;;;23.80;43.20;;;;;;1505281;79;1939;-66
2022/04/03 05:53:12;;;;;;;;;;;23.90;43.10;;;;;;1505381;79;1147;-65
2022/04/03 05:55:16;;;;;;;;;;;24.00;43.00;;;;;;1505814;78;842;-65
2022/04/03 05:57:18;;;;;;;;;;;23.90;42.90;;;;;;1495915;79;1567;-65
2022/04/03 05:59:20;;;;;;;;;;;24.00;42.80;;;;;;1505432;79;722;-64
2022/04/03 06:01:22;;;;;;;;;;;24.00;42.70;;;;;;1505249;79;770;-65
2022/04/03 06:03:24;;;;;;;;;;;23.90;42.60;;;;;;1513550;78;1123;-65
2022/04/03 06:05:27;;;;;;;;;;;24.00;42.50;;;;;;1506662;78;796;-65
2022/04/03 06:07:29;;;;;;;;;;;24.00;42.50;;;;;;1504102;78;1098;-65
2022/04/03 06:09:31;;;;;;;;;;;24.00;42.50;;;;;;1505424;79;732;-65
2022/04/03 06:11:33;;;;;;;;;;;23.90;42.40;;;;;;1505732;78;1952;-65
2022/04/03 06:13:35;;;;;;;;;;;23.90;42.40;;;;;;1505117;79;1156;-65
2022/04/03 06:15:38;;;;;;;;;;;23.90;42.30;;;;;;1505366;79;808;-65
2022/04/03 06:17:40;;;;;;;;;;;23.80;42.20;;;;;;1505229;79;775;-65
2022/04/03 06:19:41;;;;;;;;;;;23.80;42.20;;;;;;1505444;79;806;-65
2022/04/03 06:21:43;;;;;;;;;;;23.70;42.40;;;;;;1505420;78;814;-65
2022/04/03 06:23:45;;;;;;;;;;;23.70;42.30;;;;;;1505236;77;1184;-64
2022/04/03 06:25:48;;;;;;;;;;;23.60;42.20;;;;;;1492704;78;753;-64
2022/04/03 06:27:51;;;;;;;;;;;23.60;42.40;;;;;;1505216;79;698;-64
2022/04/03 06:29:53;;;;;;;;;;;23.60;42.60;;;;;;1505341;79;711;-64
2022/04/03 06:31:55;;;;;;;;;;;23.60;42.50;;;;;;1495903;79;1938;-63
2022/04/03 06:33:57;;;;;;;;;;;23.50;42.60;;;;;;1510830;78;1154;-65
2022/04/03 06:36:00;;;;;;;;;;;23.40;42.60;;;;;;1500902;79;841;-65
2022/04/03 06:38:02;;;;;;;;;;;23.40;42.50;;;;;;1500223;79;714;-65
2022/04/03 06:40:05;;;;;;;;;;;23.40;42.60;;;;;;1505443;79;811;-64
2022/04/03 06:42:07;;;;;;;;;;;23.50;42.70;;;;;;1505406;78;663;-64
2022/04/03 06:44:09;;;;;;;;;;;23.40;42.60;;;;;;1496544;79;1144;-65
2022/04/03 06:46:11;;;;;;;;;;;23.40;42.60;;;;;;1505319;79;816;-65
2022/04/03 06:48:13;;;;;;;;;;;23.30;42.70;;;;;;1505408;79;799;-65
2022/04/03 06:50:15;;;;;;;;;;;23.30;42.70;;;;;;1506103;77;678;-65
2022/04/03 06:52:17;;;;;;;;;;;23.30;42.70;;;;;;1506724;77;1935;-65
2022/04/03 06:54:19;;;;;;;;;;;23.30;42.80;;;;;;1508154;77;1149;-65
2022/04/03 06:56:20;;;;;;;;;;;23.30;42.70;;;;;;1511156;77;798;-65
2022/04/03 06:58:22;;;;;;;;;;;23.30;42.80;;;;;;1501354;77;729;-65
2022/04/03 07:00:24;;;;;;;;;;;23.20;42.80;;;;;;1513527;77;788;-65
2022/04/03 07:02:26;;;;;;;;;;;23.30;42.80;;;;;;1515062;77;769;-64
2022/04/03 07:04:28;;;;;;;;;;;23.20;42.70;;;;;;1511932;77;1142;-64
2022/04/03 07:06:30;;;;;;;;;;;23.20;42.70;;;;;;1502820;79;818;-64
2022/04/03 07:08:32;;;;;;;;;;;23.20;42.80;;;;;;1504832;78;769;-64
2022/04/03 07:10:33;;;;;;;;;;;23.30;42.80;;;;;;1505232;79;1939;-64
2022/04/03 07:12:35;;;;;;;;;;;23.20;42.80;;;;;;1504847;79;708;-64
2022/04/03 07:14:37;;;;;;;;;;;23.30;42.80;;;;;;1505338;79;1173;-64
2022/04/03 07:16:39;;;;;;;;;;;23.20;42.70;;;;;;1505602;78;583;-64
2022/04/03 07:18:41;;;;;;;;;;;23.30;42.80;;;;;;1505376;79;908;-65
2022/04/03 07:20:45;;;;;;;;;;;23.20;42.80;;;;;;1510373;77;793;-64
2022/04/03 07:22:47;;;;;;;;;;;23.20;42.70;;;;;;1510274;77;729;-64
2022/04/03 07:24:49;;;;;;;;;;;23.20;42.70;;;;;;1512985;77;1169;-64
2022/04/03 07:26:51;;;;;;;;;;;23.30;42.80;;;;;;1508624;77;769;-64
2022/04/03 07:28:52;;;;;;;;;;;23.20;42.70;;;;;;1509702;77;685;-64
2022/04/03 07:30:54;;;;;;;;;;;23.20;42.70;;;;;;1508465;77;1938;-65
2022/04/03 07:32:56;;;;;;;;;;;23.20;42.70;;;;;;1517648;77;1149;-64
2022/04/03 07:34:58;;;;;;;;;;;23.20;42.60;;;;;;1501396;77;825;-64
2022/04/03 07:37:00;;;;;;;;;;;23.20;42.60;;;;;;1504480;78;805;-64
2022/04/03 07:39:03;;;;;;;;;;;23.20;42.60;;;;;;1505412;79;781;-65
2022/04/03 07:41:05;;;;;;;;;;;23.20;42.60;;;;;;1505262;79;742;-65
2022/04/03 07:43:06;;;;;;;;;;;23.30;42.70;;;;;;1505202;79;1136;-64
2022/04/03 07:45:09;;;;;;;;;;;23.20;42.60;;;;;;1500588;78;820;-64
2022/04/03 07:47:11;;;;;;;;;;;23.20;42.60;;;;;;1505265;78;799;-65
2022/04/03 07:49:13;;;;;;;;;;;23.30;42.70;;;;;;1505295;79;686;-64
2022/04/03 07:51:15;;;;;;;;;;;23.20;42.60;;;;;;1505327;79;1952;-64
2022/04/03 07:53:17;;;;;;;;;;;23.30;42.70;;;;;;1505492;78;1119;-65
2022/04/03 07:55:19;;;;;;;;;;;23.20;42.60;;;;;;1505321;78;758;-64
2022/04/03 07:57:21;;;;;;;;;;;23.30;42.60;;;;;;1504135;79;791;-64
2022/04/03 07:59:23;;;;;;;;;;;23.30;42.50;;;;;;1504142;79;711;-64
2022/04/03 08:01:25;;;;;;;;;;;23.30;42.50;;;;;;1509637;77;748;-65
2022/04/03 08:03:27;;;;;;;;;;;23.30;42.50;;;;;;1505086;78;1151;-67
2022/04/03 08:05:28;;;;;;;;;;;23.30;42.50;;;;;;1505219;79;764;-65
2022/04/03 08:07:46;;;;;;;;;;;23.40;42.50;;;;;;1505305;79;776;-65
2022/04/03 08:09:47;;;;;;;;;;;23.40;42.30;;;;;;1505274;79;721;-64
2022/04/03 08:11:49;;;;;;;;;;;23.40;42.10;;;;;;1501917;78;1956;-65
2022/04/03 08:13:51;;;;;;;;;;;23.40;42.00;;;;;;1506840;77;1207;-65
2022/04/03 08:15:54;;;;;;;;;;;23.50;42.00;;;;;;1512397;77;789;-65
2022/04/03 08:17:56;;;;;;;;;;;23.50;42.10;;;;;;1509881;77;713;-65
2022/04/03 08:19:58;;;;;;;;;;;23.40;41.90;;;;;;1503408;77;834;-65
2022/04/03 08:22:00;;;;;;;;;;;23.30;42.00;;;;;;1502466;77;782;-65
2022/04/03 08:24:02;;;;;;;;;;;23.40;42.00;;;;;;1517942;77;1153;-65
2022/04/03 08:26:04;;;;;;;;;;;23.40;41.90;;;;;;1508150;77;759;-65
2022/04/03 08:28:07;;;;;;;;;;;23.30;42.00;;;;;;1505425;77;893;-65
2022/04/03 08:30:13;;;;;;;;;;;23.40;41.90;;;;;;1507868;77;722;-65
2022/04/03 08:32:14;;;;;;;;;;;23.40;41.90;;;;;;1509322;77;1931;-66
2022/04/03 08:34:15;;;;;;;;;;;23.40;41.90;;;;;;1511780;77;1090;-66
2022/04/03 08:36:18;;;;;;;;;;;23.30;42.00;;;;;;1512183;77;740;-64
2022/04/03 08:38:19;;;;;;;;;;;23.40;42.00;;;;;;1513359;77;812;-65
2022/04/03 08:40:24;;;;;;;;;;;23.30;41.90;;;;;;1509143;77;652;-66
2022/04/03 08:42:27;;;;;;;;;;;23.50;42.10;;;;;;1505016;77;888;-65
2022/04/03 08:44:29;;;;;;;;;;;23.40;41.90;;;;;;1503227;77;1138;-65
2022/04/03 08:46:31;;;;;;;;;;;23.40;41.90;;;;;;1512724;77;803;-66
2022/04/03 08:48:32;;;;;;;;;;;23.40;41.90;;;;;;1512439;77;790;-65
2022/04/03 08:50:39;;;;;;;;;;;23.40;41.90;;;;;;1509457;77;751;-65
2022/04/03 08:52:39;;;;;;;;;;;23.40;41.90;;;;;;1505009;77;1914;-67
2022/04/03 08:54:41;;;;;;;;;;;23.50;42.00;;;;;;1499729;78;1068;-65
2022/04/03 08:56:45;;;;;;;;;;;23.50;42.00;;;;;;1496059;79;707;-65
2022/04/03 08:58:47;;;;;;;;;;;23.40;41.80;;;;;;1512237;77;769;-64
2022/04/03 09:00:50;;;;;;;;;;;23.50;41.90;;;;;;1502909;78;805;-65
2022/04/03 09:02:55;;;;;;;;;;;23.50;41.90;;;;;;1505520;77;1090;-65
2022/04/03 09:04:57;;;;;;;;;;;23.50;41.80;;;;;;1548254;71;226412;-66
2022/04/03 09:07:00;;;;;;;;;;;23.40;41.70;;;;;;1560658;75;807;-66
2022/04/03 09:09:03;;;;;;;;;;;23.50;41.80;;;;;;1563790;74;705;-67
2022/04/03 09:11:11;;;;;;;;;;;23.50;41.80;;;;;;1553933;75;807;-67
2022/04/03 09:13:14;;;;;;;;;;;23.50;41.80;;;;;;1558952;75;1924;-67
2022/04/03 09:15:17;;;;;;;;;;;23.60;41.80;;;;;;1587068;74;1162;-67
2022/04/03 09:17:38;;;;;;;;;;;23.60;41.70;;;;;;1588637;75;1121;-67
2022/04/03 09:19:40;;;;;;;;;;;23.60;41.50;;;;;;1587789;75;755;-65
2022/04/03 09:21:42;;;;;;;;;;;23.60;41.40;;;;;;1588455;75;867;-66
2022/04/03 09:23:57;;;;;;;;;;;23.70;41.40;;;;;;1595394;74;1108;-67
2022/04/03 09:25:59;;;;;;;;;;;23.90;41.30;;;;;;1576632;75;765;-67
2022/04/03 09:28:06;;;;;;;;;;;23.90;41.10;;;;;;1530895;75;885;-67
2022/04/03 09:30:07;;;;;;;;;;;23.90;40.90;;;;;;1593783;74;1213;-67
2022/04/03 09:32:09;;;;;;;;;;;24.00;40.80;;;;;;1566645;74;1968;-67
2022/04/03 09:34:15;;;;;;;;;;;24.00;40.80;;;;;;1565218;75;1150;-67
2022/04/03 09:36:17;;;;;;;;;;;24.00;40.70;;;;;;1564632;75;1824;-67
2022/04/03 09:38:19;;;;;;;;;;;24.00;40.60;;;;;;1570697;74;799;-66
2022/04/03 09:40:33;;;;;;;;;;;24.00;40.50;;;;;;1581686;75;749;-67
2022/04/03 09:42:34;;;;;;;;;;;24.10;40.60;;;;;;1569919;75;1566;-66
2022/04/03 09:44:45;;;;;;;;;;;24.00;40.40;;;;;;1565534;75;1059;-67
2022/04/03 09:46:48;;;;;;;;;;;24.10;40.60;;;;;;1557935;74;759;-66
2022/04/03 09:48:55;;;;;;;;;;;24.10;40.70;;;;;;1593218;74;707;-67
2022/04/03 09:50:57;;;;;;;;;;;24.00;40.50;;;;;;1581974;74;1233;-66
2022/04/03 09:52:59;;;;;;;;;;;24.00;40.60;;;;;;1581568;74;1926;-66
2022/04/03 09:55:01;;;;;;;;;;;23.90;40.50;;;;;;1575214;74;1122;-66
2022/04/03 09:57:23;;;;;;;;;;;24.00;40.60;;;;;;1568687;74;732;-66
2022/04/03 09:59:31;;;;;;;;;;;23.90;40.60;;;;;;1575152;74;772;-67
2022/04/03 10:01:38;;;;;;;;;;;24.00;40.60;;;;;;1592570;74;1145;-67
2022/04/03 10:03:42;;;;;;;;;;;24.00;40.60;;;;;;1590341;74;1777;-66
2022/04/03 10:05:44;;;;;;;;;;;24.00;40.50;;;;;;1593300;73;1605;-67
2022/04/03 10:07:46;;;;;;;;;;;23.90;40.60;;;;;;1579266;74;767;-67
2022/04/03 10:09:48;;;;;;;;;;;24.00;40.60;;;;;;1594162;74;670;-67
2022/04/03 10:11:52;;;;;;;;;;;24.00;40.60;;;;;;1594826;74;1922;-66
2022/04/03 10:13:53;;;;;;;;;;;23.90;40.60;;;;;;1594181;74;2256;-67
2022/04/03 10:15:55;;;;;;;;;;;24.00;40.60;;;;;;1584898;74;744;-67
2022/04/03 10:17:57;;;;;;;;;;;23.90;40.60;;;;;;1569199;74;675;-67
2022/04/03 10:19:59;;;;;;;;;;;24.00;40.70;;;;;;1570044;74;726;-67
2022/04/03 10:22:01;;;;;;;;;;;23.90;40.70;;;;;;1592749;74;752;-67
2022/04/03 10:24:04;;;;;;;;;;;23.90;40.60;;;;;;1594728;74;1070;-66
2022/04/03 10:26:22;;;;;;;;;;;;;;;;;;;;;
2022/04/03 10:28:13;;;;;;;;;;;23.90;40.70;;;;;;1585337;74;1649;-67
2022/04/03 10:30:17;;;;;;;;;;;23.90;40.70;;;;;;1591662;74;664;-67
2022/04/03 10:32:23;;;;;;;;;;;23.90;40.70;;;;;;1592623;74;1925;-67
2022/04/03 10:34:33;;;;;;;;;;;23.90;40.70;;;;;;1587449;74;1150;-67
2022/04/03 10:36:33;;;;;;;;;;;23.80;40.70;;;;;;1590032;74;1468;-67
2022/04/03 10:38:36;;;;;;;;;;;23.80;40.70;;;;;;1591393;74;706;-67
2022/04/03 10:40:41;;;;;;;;;;;23.80;40.70;;;;;;1570368;74;1393;-67
2022/04/03 10:42:55;;;;;;;;;;;23.90;40.80;;;;;;1579878;74;906;-67
2022/04/03 10:45:17;;;;;;;;;;;23.70;40.70;;;;;;1582459;74;1146;-65
2022/04/03 10:47:23;;;;;;;;;;;23.80;40.70;;;;;;1568191;74;655;-67
2022/04/03 10:49:31;;;;;;;;;;;23.80;40.80;;;;;;1577025;74;1668;-67
2022/04/03 10:51:35;;;;;;;;;;;23.80;40.70;;;;;;1579369;74;788;-67
2022/04/03 10:53:43;;;;;;;;;;;23.70;40.70;;;;;;1574762;74;1925;-67
2022/04/03 10:55:45;;;;;;;;;;;23.80;40.70;;;;;;1573563;74;1518;-67
2022/04/03 10:57:59;;;;;;;;;;;23.70;40.80;;;;;;1576460;74;1495;-67
2022/04/03 11:00:14;;;;;;;;;;;23.80;40.80;;;;;;1573605;74;1475;-67
2022/04/03 11:02:21;;;;;;;;;;;23.90;40.70;;;;;;1575636;74;672;-67
2022/04/03 11:04:20;;;;;;;;;;;23.90;40.70;;;;;;1573696;74;1142;-67
2022/04/03 11:06:23;;;;;;;;;;;23.80;40.60;;;;;;1554856;75;1165;-67
2022/04/03 11:08:42;;;;;;;;;;;23.90;40.60;;;;;;1568065;74;969;-67
2022/04/03 11:13:02;;;;;;;;;;;24.00;40.40;;;;;;1581976;74;1919;-67
2022/04/03 11:15:03;;;;;;;;;;;24.00;40.40;;;;;;1573086;74;1254;-67
2022/04/03 11:17:08;;;;;;;;;;;23.90;40.40;;;;;;1568143;74;1652;-67
2022/04/03 11:19:10;;;;;;;;;;;24.00;40.40;;;;;;1567450;74;1148;-67
2022/04/03 11:21:27;;;;;;;;;;;24.00;40.40;;;;;;1566863;74;1102;-66
2022/04/03 11:23:34;;;;;;;;;;;24.00;40.40;;;;;;1568116;74;1125;-65
2022/04/03 11:25:32;;;;;;;;;;;24.00;40.50;;;;;;1574990;74;1252;-66
2022/04/03 11:27:37;;;;;;;;;;;24.00;40.50;;;;;;1594715;74;859;-67
2022/04/03 11:29:38;;;;;;;;;;;23.90;40.60;;;;;;1567786;74;937;-67
2022/04/03 11:31:59;;;;;;;;;;;23.90;40.60;;;;;;1573203;74;752;-66
2022/04/03 11:34:01;;;;;;;;;;;24.00;40.70;;;;;;1584263;74;1257;-67
2022/04/03 11:36:07;;;;;;;;;;;24.00;40.50;;;;;;1571262;74;682;-67
2022/04/03 11:38:09;;;;;;;;;;;24.00;40.60;;;;;;1579667;74;798;-67
2022/04/03 11:40:13;;;;;;;;;;;23.90;40.60;;;;;;1591915;74;686;-67
2022/04/03 11:42:16;;;;;;;;;;;23.90;40.70;;;;;;1589598;74;1573;-67
2022/04/03 11:44:18;;;;;;;;;;;23.90;40.70;;;;;;1586254;74;1317;-67
2022/04/03 11:46:20;;;;;;;;;;;24.00;40.60;;;;;;1580902;74;1045;-65
2022/04/03 11:48:22;;;;;;;;;;;23.90;40.70;;;;;;1571239;74;731;-66
2022/04/03 11:50:24;;;;;;;;;;;24.00;40.70;;;;;;1584436;74;799;-67
2022/04/03 11:52:28;;;;;;;;;;;23.90;40.70;;;;;;1595337;74;1924;-66
2022/04/03 11:54:30;;;;;;;;;;;24.00;40.70;;;;;;1589193;74;1599;-67
2022/04/03 11:56:34;;;;;;;;;;;23.90;40.70;;;;;;1580878;74;763;-67
2022/04/03 11:58:40;;;;;;;;;;;23.90;40.70;;;;;;1588728;74;1656;-67
2022/04/03 12:00:49;;;;;;;;;;;23.90;40.80;;;;;;1586891;74;1247;-67
2022/04/03 12:02:55;;;;;;;;;;;23.80;40.70;;;;;;1580849;74;910;-67
2022/04/03 12:05:00;;;;;;;;;;;23.90;40.80;;;;;;1594912;74;1146;-65
2022/04/03 12:07:17;;;;;;;;;;;23.90;40.80;;;;;;1596262;74;788;-67
2022/04/03 12:09:26;;;;;;;;;;;23.90;40.80;;;;;;1546053;74;1437;-67
2022/04/03 12:11:28;;;;;;;;;;;23.90;40.80;;;;;;1593062;74;1661;-66
2022/04/03 12:13:33;;;;;;;;;;;23.90;40.70;;;;;;1584845;74;1916;-67
2022/04/03 12:15:36;;;;;;;;;;;23.90;40.70;;;;;;1583877;74;728;-67